sensor_id;sensor_type;location;lat;lon;timestamp;P1;durP1;ratioP1;P2;durP2;ratioP2
58581;SDS011;44361;51.476;5.700;2023-12-20T00:02:13;24.75;;;9.23;;
58581;SDS011;44361;51.476;5.700;2023-12-20T00:04:39;22.55;;;8.30;;
58581;SDS011;44361;51.476;5.700;2023-12-20T00:07:04;23.40;;;8.00;;
58581;SDS011;44361;51.476;5.700;2023-12-20T00:09:30;19.50;;;7.25;;
58581;SDS011;44361;51.476;5.700;2023-12-20T00:11:55;25.30;;;7.57;;
58581;SDS011;44361;51.476;5.700;2023-12-20T00:14:21;17.85;;;6.57;;
58581;SDS011;44361;51.476;5.700;2023-12-20T00:16:47;25.70;;;6.88;;
58581;SDS011;44361;51.476;5.700;2023-12-20T00:19:12;21.83;;;7.00;;
58581;SDS011;44361;51.476;5.700;2023-12-20T00:21:38;19.17;;;5.35;;
58581;SDS011;44361;51.476;5.700;2023-12-20T00:24:04;22.63;;;6.22;;
58581;SDS011;44361;51.476;5.700;2023-12-20T00:26:30;17.52;;;5.28;;
58581;SDS011;44361;51.476;5.700;2023-12-20T00:28:55;17.65;;;6.22;;
58581;SDS011;44361;51.476;5.700;2023-12-20T00:31:21;15.93;;;5.20;;
58581;SDS011;44361;51.476;5.700;2023-12-20T00:33:46;16.42;;;4.95;;
58581;SDS011;44361;51.476;5.700;2023-12-20T00:36:12;20.92;;;4.80;;
58581;SDS011;44361;51.476;5.700;2023-12-20T00:38:37;16.85;;;4.65;;
58581;SDS011;44361;51.476;5.700;2023-12-20T00:41:03;14.93;;;3.92;;
58581;SDS011;44361;51.476;5.700;2023-12-20T00:43:29;18.98;;;4.18;;
58581;SDS011;44361;51.476;5.700;2023-12-20T00:45:54;20.48;;;4.57;;
58581;SDS011;44361;51.476;5.700;2023-12-20T00:48:20;18.45;;;4.28;;
58581;SDS011;44361;51.476;5.700;2023-12-20T00:50:46;16.52;;;3.40;;
58581;SDS011;44361;51.476;5.700;2023-12-20T00:53:11;17.13;;;3.90;;
58581;SDS011;44361;51.476;5.700;2023-12-20T00:55:37;13.63;;;3.33;;
58581;SDS011;44361;51.476;5.700;2023-12-20T00:58:03;17.27;;;3.35;;
58581;SDS011;44361;51.476;5.700;2023-12-20T01:00:28;15.02;;;2.90;;
58581;SDS011;44361;51.476;5.700;2023-12-20T01:02:54;22.92;;;3.08;;
58581;SDS011;44361;51.476;5.700;2023-12-20T01:05:20;18.05;;;3.30;;
58581;SDS011;44361;51.476;5.700;2023-12-20T01:07:48;16.48;;;3.40;;
58581;SDS011;44361;51.476;5.700;2023-12-20T01:10:14;16.13;;;3.28;;
58581;SDS011;44361;51.476;5.700;2023-12-20T01:12:39;12.32;;;2.80;;
58581;SDS011;44361;51.476;5.700;2023-12-20T01:15:05;14.95;;;2.78;;
58581;SDS011;44361;51.476;5.700;2023-12-20T01:17:31;17.08;;;2.95;;
58581;SDS011;44361;51.476;5.700;2023-12-20T01:19:57;15.57;;;2.65;;
58581;SDS011;44361;51.476;5.700;2023-12-20T01:22:23;16.25;;;3.13;;
58581;SDS011;44361;51.476;5.700;2023-12-20T01:24:48;15.50;;;3.20;;
58581;SDS011;44361;51.476;5.700;2023-12-20T01:27:14;13.88;;;2.97;;
58581;SDS011;44361;51.476;5.700;2023-12-20T01:29:40;19.42;;;3.35;;
58581;SDS011;44361;51.476;5.700;2023-12-20T01:32:05;14.98;;;2.67;;
58581;SDS011;44361;51.476;5.700;2023-12-20T01:34:31;22.48;;;2.92;;
58581;SDS011;44361;51.476;5.700;2023-12-20T01:36:57;33.33;;;3.63;;
58581;SDS011;44361;51.476;5.700;2023-12-20T01:39:22;25.92;;;3.08;;
58581;SDS011;44361;51.476;5.700;2023-12-20T01:41:48;13.35;;;2.80;;
58581;SDS011;44361;51.476;5.700;2023-12-20T01:44:13;21.52;;;3.10;;
58581;SDS011;44361;51.476;5.700;2023-12-20T01:46:39;23.00;;;3.03;;
58581;SDS011;44361;51.476;5.700;2023-12-20T01:49:05;16.73;;;2.78;;
58581;SDS011;44361;51.476;5.700;2023-12-20T01:51:31;20.27;;;2.70;;
58581;SDS011;44361;51.476;5.700;2023-12-20T01:53:58;27.45;;;2.83;;
58581;SDS011;44361;51.476;5.700;2023-12-20T01:56:25;21.48;;;2.70;;
58581;SDS011;44361;51.476;5.700;2023-12-20T01:58:53;24.20;;;3.25;;
58581;SDS011;44361;51.476;5.700;2023-12-20T02:01:20;22.48;;;3.15;;
58581;SDS011;44361;51.476;5.700;2023-12-20T02:03:46;18.15;;;2.63;;
58581;SDS011;44361;51.476;5.700;2023-12-20T02:06:12;15.02;;;2.47;;
58581;SDS011;44361;51.476;5.700;2023-12-20T02:08:38;17.30;;;2.90;;
58581;SDS011;44361;51.476;5.700;2023-12-20T02:11:04;16.77;;;2.95;;
58581;SDS011;44361;51.476;5.700;2023-12-20T02:13:30;25.05;;;2.92;;
58581;SDS011;44361;51.476;5.700;2023-12-20T02:15:56;21.50;;;2.85;;
58581;SDS011;44361;51.476;5.700;2023-12-20T02:18:21;19.73;;;2.58;;
58581;SDS011;44361;51.476;5.700;2023-12-20T02:20:47;25.00;;;3.25;;
58581;SDS011;44361;51.476;5.700;2023-12-20T02:23:13;14.35;;;2.83;;
58581;SDS011;44361;51.476;5.700;2023-12-20T02:25:39;17.88;;;3.13;;
58581;SDS011;44361;51.476;5.700;2023-12-20T02:28:04;20.42;;;2.95;;
58581;SDS011;44361;51.476;5.700;2023-12-20T02:30:31;13.60;;;2.90;;
58581;SDS011;44361;51.476;5.700;2023-12-20T02:32:57;16.67;;;2.55;;
58581;SDS011;44361;51.476;5.700;2023-12-20T02:35:24;21.58;;;2.88;;
58581;SDS011;44361;51.476;5.700;2023-12-20T02:37:50;18.63;;;3.40;;
58581;SDS011;44361;51.476;5.700;2023-12-20T02:40:16;19.13;;;3.17;;
58581;SDS011;44361;51.476;5.700;2023-12-20T02:42:41;26.63;;;3.58;;
58581;SDS011;44361;51.476;5.700;2023-12-20T02:45:07;25.25;;;3.85;;
58581;SDS011;44361;51.476;5.700;2023-12-20T02:47:33;17.00;;;3.42;;
58581;SDS011;44361;51.476;5.700;2023-12-20T02:49:58;18.40;;;3.65;;
58581;SDS011;44361;51.476;5.700;2023-12-20T02:52:24;25.98;;;3.75;;
58581;SDS011;44361;51.476;5.700;2023-12-20T02:54:50;26.45;;;3.85;;
58581;SDS011;44361;51.476;5.700;2023-12-20T02:57:15;20.13;;;3.33;;
58581;SDS011;44361;51.476;5.700;2023-12-20T02:59:41;27.05;;;4.13;;
58581;SDS011;44361;51.476;5.700;2023-12-20T03:02:06;15.20;;;3.45;;
58581;SDS011;44361;51.476;5.700;2023-12-20T03:04:32;25.55;;;3.83;;
58581;SDS011;44361;51.476;5.700;2023-12-20T03:06:57;23.35;;;3.20;;
58581;SDS011;44361;51.476;5.700;2023-12-20T03:09:23;28.38;;;4.50;;
58581;SDS011;44361;51.476;5.700;2023-12-20T03:11:48;18.50;;;3.45;;
58581;SDS011;44361;51.476;5.700;2023-12-20T03:14:14;23.30;;;4.05;;
58581;SDS011;44361;51.476;5.700;2023-12-20T03:16:39;16.92;;;3.20;;
58581;SDS011;44361;51.476;5.700;2023-12-20T03:19:05;34.45;;;3.63;;
58581;SDS011;44361;51.476;5.700;2023-12-20T03:21:31;18.90;;;3.25;;
58581;SDS011;44361;51.476;5.700;2023-12-20T03:23:56;24.63;;;4.22;;
58581;SDS011;44361;51.476;5.700;2023-12-20T03:26:22;19.70;;;3.65;;
58581;SDS011;44361;51.476;5.700;2023-12-20T03:28:48;25.30;;;3.45;;
58581;SDS011;44361;51.476;5.700;2023-12-20T03:31:14;16.38;;;3.20;;
58581;SDS011;44361;51.476;5.700;2023-12-20T03:33:39;17.15;;;3.13;;
58581;SDS011;44361;51.476;5.700;2023-12-20T03:36:05;19.05;;;2.92;;
58581;SDS011;44361;51.476;5.700;2023-12-20T03:38:31;21.50;;;3.67;;
58581;SDS011;44361;51.476;5.700;2023-12-20T03:40:56;21.45;;;3.92;;
58581;SDS011;44361;51.476;5.700;2023-12-20T03:43:22;21.73;;;4.78;;
58581;SDS011;44361;51.476;5.700;2023-12-20T03:45:47;15.70;;;3.88;;
58581;SDS011;44361;51.476;5.700;2023-12-20T03:48:13;21.90;;;4.75;;
58581;SDS011;44361;51.476;5.700;2023-12-20T03:50:38;29.05;;;4.57;;
58581;SDS011;44361;51.476;5.700;2023-12-20T03:53:04;13.90;;;3.90;;
58581;SDS011;44361;51.476;5.700;2023-12-20T03:55:29;22.20;;;4.60;;
58581;SDS011;44361;51.476;5.700;2023-12-20T03:57:55;29.00;;;4.80;;
58581;SDS011;44361;51.476;5.700;2023-12-20T04:00:20;21.13;;;4.50;;
58581;SDS011;44361;51.476;5.700;2023-12-20T04:02:46;22.70;;;4.70;;
58581;SDS011;44361;51.476;5.700;2023-12-20T04:05:12;31.50;;;5.82;;
58581;SDS011;44361;51.476;5.700;2023-12-20T04:07:37;18.33;;;4.70;;
58581;SDS011;44361;51.476;5.700;2023-12-20T04:10:04;19.27;;;4.38;;
58581;SDS011;44361;51.476;5.700;2023-12-20T04:12:30;27.48;;;5.47;;
58581;SDS011;44361;51.476;5.700;2023-12-20T04:14:56;26.15;;;5.35;;
58581;SDS011;44361;51.476;5.700;2023-12-20T04:17:22;29.52;;;5.63;;
58581;SDS011;44361;51.476;5.700;2023-12-20T04:19:48;19.92;;;5.53;;
58581;SDS011;44361;51.476;5.700;2023-12-20T04:22:14;26.38;;;5.55;;
58581;SDS011;44361;51.476;5.700;2023-12-20T04:24:40;26.42;;;5.10;;
58581;SDS011;44361;51.476;5.700;2023-12-20T04:27:07;18.10;;;5.00;;
58581;SDS011;44361;51.476;5.700;2023-12-20T04:29:33;21.63;;;5.15;;
58581;SDS011;44361;51.476;5.700;2023-12-20T04:31:58;16.75;;;5.57;;
58581;SDS011;44361;51.476;5.700;2023-12-20T04:34:24;21.45;;;4.85;;
58581;SDS011;44361;51.476;5.700;2023-12-20T04:36:50;21.90;;;5.07;;
58581;SDS011;44361;51.476;5.700;2023-12-20T04:39:15;28.23;;;5.07;;
58581;SDS011;44361;51.476;5.700;2023-12-20T04:41:41;22.38;;;5.50;;
58581;SDS011;44361;51.476;5.700;2023-12-20T04:44:07;26.98;;;5.00;;
58581;SDS011;44361;51.476;5.700;2023-12-20T04:46:33;19.77;;;5.45;;
58581;SDS011;44361;51.476;5.700;2023-12-20T04:48:58;23.55;;;5.80;;
58581;SDS011;44361;51.476;5.700;2023-12-20T04:51:24;26.17;;;5.82;;
58581;SDS011;44361;51.476;5.700;2023-12-20T04:53:49;32.95;;;5.97;;
58581;SDS011;44361;51.476;5.700;2023-12-20T04:56:15;18.88;;;4.88;;
58581;SDS011;44361;51.476;5.700;2023-12-20T04:58:42;23.60;;;4.93;;
58581;SDS011;44361;51.476;5.700;2023-12-20T05:01:07;20.70;;;4.95;;
58581;SDS011;44361;51.476;5.700;2023-12-20T05:03:34;28.98;;;5.15;;
58581;SDS011;44361;51.476;5.700;2023-12-20T05:05:59;26.80;;;5.40;;
58581;SDS011;44361;51.476;5.700;2023-12-20T05:08:25;22.58;;;5.53;;
58581;SDS011;44361;51.476;5.700;2023-12-20T05:10:52;29.83;;;5.88;;
58581;SDS011;44361;51.476;5.700;2023-12-20T05:13:19;23.48;;;5.00;;
58581;SDS011;44361;51.476;5.700;2023-12-20T05:15:45;25.33;;;5.93;;
58581;SDS011;44361;51.476;5.700;2023-12-20T05:18:10;28.40;;;5.07;;
58581;SDS011;44361;51.476;5.700;2023-12-20T05:20:36;17.17;;;4.68;;
58581;SDS011;44361;51.476;5.700;2023-12-20T05:23:02;25.83;;;5.78;;
58581;SDS011;44361;51.476;5.700;2023-12-20T05:25:27;25.33;;;5.50;;
58581;SDS011;44361;51.476;5.700;2023-12-20T05:27:53;27.67;;;5.28;;
58581;SDS011;44361;51.476;5.700;2023-12-20T05:30:19;15.57;;;4.80;;
58581;SDS011;44361;51.476;5.700;2023-12-20T05:32:44;31.02;;;6.30;;
58581;SDS011;44361;51.476;5.700;2023-12-20T05:35:10;24.35;;;4.90;;
58581;SDS011;44361;51.476;5.700;2023-12-20T05:37:35;33.42;;;5.68;;
58581;SDS011;44361;51.476;5.700;2023-12-20T05:40:01;25.83;;;6.40;;
58581;SDS011;44361;51.476;5.700;2023-12-20T05:42:26;27.25;;;5.25;;
58581;SDS011;44361;51.476;5.700;2023-12-20T05:44:52;25.55;;;4.90;;
58581;SDS011;44361;51.476;5.700;2023-12-20T05:47:17;24.10;;;5.45;;
58581;SDS011;44361;51.476;5.700;2023-12-20T05:49:43;20.23;;;5.70;;
58581;SDS011;44361;51.476;5.700;2023-12-20T05:52:09;27.98;;;6.38;;
58581;SDS011;44361;51.476;5.700;2023-12-20T05:54:34;25.48;;;6.35;;
58581;SDS011;44361;51.476;5.700;2023-12-20T05:57:00;28.75;;;5.75;;
58581;SDS011;44361;51.476;5.700;2023-12-20T05:59:26;31.42;;;5.63;;
58581;SDS011;44361;51.476;5.700;2023-12-20T06:01:51;23.48;;;5.22;;
58581;SDS011;44361;51.476;5.700;2023-12-20T06:04:17;21.55;;;5.57;;
58581;SDS011;44361;51.476;5.700;2023-12-20T06:06:43;23.75;;;5.43;;
58581;SDS011;44361;51.476;5.700;2023-12-20T06:09:09;33.08;;;6.22;;
58581;SDS011;44361;51.476;5.700;2023-12-20T06:11:35;21.38;;;5.63;;
58581;SDS011;44361;51.476;5.700;2023-12-20T06:14:00;21.50;;;5.18;;
58581;SDS011;44361;51.476;5.700;2023-12-20T06:16:26;25.42;;;5.75;;
58581;SDS011;44361;51.476;5.700;2023-12-20T06:18:51;26.45;;;5.57;;
58581;SDS011;44361;51.476;5.700;2023-12-20T06:21:17;25.42;;;5.55;;
58581;SDS011;44361;51.476;5.700;2023-12-20T06:23:43;30.10;;;5.88;;
58581;SDS011;44361;51.476;5.700;2023-12-20T06:26:08;27.25;;;5.47;;
58581;SDS011;44361;51.476;5.700;2023-12-20T06:28:34;23.40;;;5.43;;
58581;SDS011;44361;51.476;5.700;2023-12-20T06:31:00;24.40;;;4.78;;
58581;SDS011;44361;51.476;5.700;2023-12-20T06:33:25;24.77;;;4.82;;
58581;SDS011;44361;51.476;5.700;2023-12-20T06:35:51;28.25;;;5.07;;
58581;SDS011;44361;51.476;5.700;2023-12-20T06:38:17;19.73;;;4.63;;
58581;SDS011;44361;51.476;5.700;2023-12-20T06:40:43;27.00;;;4.85;;
58581;SDS011;44361;51.476;5.700;2023-12-20T06:43:09;29.85;;;5.15;;
58581;SDS011;44361;51.476;5.700;2023-12-20T06:45:35;20.25;;;4.63;;
58581;SDS011;44361;51.476;5.700;2023-12-20T06:48:01;16.02;;;4.13;;
58581;SDS011;44361;51.476;5.700;2023-12-20T06:50:26;30.15;;;4.35;;
58581;SDS011;44361;51.476;5.700;2023-12-20T06:52:52;29.17;;;4.32;;
58581;SDS011;44361;51.476;5.700;2023-12-20T06:55:18;26.00;;;5.25;;
58581;SDS011;44361;51.476;5.700;2023-12-20T06:57:44;34.47;;;4.88;;
58581;SDS011;44361;51.476;5.700;2023-12-20T07:00:11;26.10;;;4.38;;
58581;SDS011;44361;51.476;5.700;2023-12-20T07:02:37;29.48;;;4.75;;
58581;SDS011;44361;51.476;5.700;2023-12-20T07:05:02;30.98;;;3.80;;
58581;SDS011;44361;51.476;5.700;2023-12-20T07:07:29;26.77;;;4.38;;
58581;SDS011;44361;51.476;5.700;2023-12-20T07:09:54;23.42;;;4.72;;
58581;SDS011;44361;51.476;5.700;2023-12-20T07:12:20;27.48;;;4.50;;
58581;SDS011;44361;51.476;5.700;2023-12-20T07:14:46;16.98;;;3.55;;
58581;SDS011;44361;51.476;5.700;2023-12-20T07:17:11;19.60;;;4.10;;
58581;SDS011;44361;51.476;5.700;2023-12-20T07:19:39;19.90;;;3.92;;
58581;SDS011;44361;51.476;5.700;2023-12-20T07:22:05;22.60;;;3.80;;
58581;SDS011;44361;51.476;5.700;2023-12-20T07:24:31;24.92;;;4.47;;
58581;SDS011;44361;51.476;5.700;2023-12-20T07:26:56;17.35;;;4.03;;
58581;SDS011;44361;51.476;5.700;2023-12-20T07:29:22;25.23;;;5.00;;
58581;SDS011;44361;51.476;5.700;2023-12-20T07:31:47;25.95;;;4.32;;
58581;SDS011;44361;51.476;5.700;2023-12-20T07:34:13;20.90;;;3.55;;
58581;SDS011;44361;51.476;5.700;2023-12-20T07:36:39;22.45;;;3.97;;
58581;SDS011;44361;51.476;5.700;2023-12-20T07:39:04;18.63;;;3.53;;
58581;SDS011;44361;51.476;5.700;2023-12-20T07:41:30;13.80;;;4.10;;
58581;SDS011;44361;51.476;5.700;2023-12-20T07:43:55;25.08;;;3.85;;
58581;SDS011;44361;51.476;5.700;2023-12-20T07:46:21;29.23;;;3.83;;
58581;SDS011;44361;51.476;5.700;2023-12-20T07:48:48;27.02;;;3.55;;
58581;SDS011;44361;51.476;5.700;2023-12-20T07:51:14;18.75;;;3.58;;
58581;SDS011;44361;51.476;5.700;2023-12-20T07:53:39;22.83;;;3.35;;
58581;SDS011;44361;51.476;5.700;2023-12-20T07:56:26;20.63;;;3.53;;
58581;SDS011;44361;51.476;5.700;2023-12-20T07:58:51;18.60;;;3.33;;
58581;SDS011;44361;51.476;5.700;2023-12-20T08:01:16;21.92;;;3.38;;
58581;SDS011;44361;51.476;5.700;2023-12-20T08:03:43;15.05;;;3.63;;
58581;SDS011;44361;51.476;5.700;2023-12-20T08:06:09;22.75;;;3.53;;
58581;SDS011;44361;51.476;5.700;2023-12-20T08:08:34;15.75;;;3.85;;
58581;SDS011;44361;51.476;5.700;2023-12-20T08:11:00;30.60;;;4.20;;
58581;SDS011;44361;51.476;5.700;2023-12-20T08:13:26;20.80;;;4.07;;
58581;SDS011;44361;51.476;5.700;2023-12-20T08:15:52;15.52;;;3.60;;
58581;SDS011;44361;51.476;5.700;2023-12-20T08:18:18;19.00;;;3.15;;
58581;SDS011;44361;51.476;5.700;2023-12-20T08:20:44;26.30;;;3.58;;
58581;SDS011;44361;51.476;5.700;2023-12-20T08:23:09;19.58;;;3.97;;
58581;SDS011;44361;51.476;5.700;2023-12-20T08:25:35;11.90;;;3.03;;
58581;SDS011;44361;51.476;5.700;2023-12-20T08:28:01;25.50;;;3.08;;
58581;SDS011;44361;51.476;5.700;2023-12-20T08:30:28;15.73;;;3.70;;
58581;SDS011;44361;51.476;5.700;2023-12-20T08:32:54;19.73;;;3.40;;
58581;SDS011;44361;51.476;5.700;2023-12-20T08:35:20;20.88;;;3.40;;
58581;SDS011;44361;51.476;5.700;2023-12-20T08:37:45;17.77;;;3.17;;
58581;SDS011;44361;51.476;5.700;2023-12-20T08:40:11;17.38;;;3.17;;
58581;SDS011;44361;51.476;5.700;2023-12-20T08:42:37;23.40;;;3.38;;
58581;SDS011;44361;51.476;5.700;2023-12-20T08:45:02;26.35;;;3.60;;
58581;SDS011;44361;51.476;5.700;2023-12-20T08:47:29;23.38;;;4.05;;
58581;SDS011;44361;51.476;5.700;2023-12-20T08:49:55;19.50;;;2.65;;
58581;SDS011;44361;51.476;5.700;2023-12-20T08:52:24;16.83;;;3.17;;
58581;SDS011;44361;51.476;5.700;2023-12-20T08:54:52;22.30;;;3.65;;
58581;SDS011;44361;51.476;5.700;2023-12-20T08:57:19;15.98;;;3.65;;
58581;SDS011;44361;51.476;5.700;2023-12-20T08:59:46;18.70;;;3.60;;
58581;SDS011;44361;51.476;5.700;2023-12-20T09:02:13;18.33;;;3.50;;
58581;SDS011;44361;51.476;5.700;2023-12-20T09:04:39;22.65;;;3.63;;
58581;SDS011;44361;51.476;5.700;2023-12-20T09:07:04;20.20;;;3.85;;
58581;SDS011;44361;51.476;5.700;2023-12-20T09:09:30;21.80;;;3.45;;
58581;SDS011;44361;51.476;5.700;2023-12-20T09:11:57;19.58;;;3.95;;
58581;SDS011;44361;51.476;5.700;2023-12-20T09:14:23;14.48;;;3.67;;
58581;SDS011;44361;51.476;5.700;2023-12-20T09:16:48;21.70;;;2.88;;
58581;SDS011;44361;51.476;5.700;2023-12-20T09:19:16;18.92;;;3.55;;
58581;SDS011;44361;51.476;5.700;2023-12-20T09:21:42;18.48;;;3.35;;
58581;SDS011;44361;51.476;5.700;2023-12-20T09:24:07;24.17;;;4.05;;
58581;SDS011;44361;51.476;5.700;2023-12-20T09:26:33;24.52;;;3.75;;
58581;SDS011;44361;51.476;5.700;2023-12-20T09:28:59;24.10;;;3.35;;
58581;SDS011;44361;51.476;5.700;2023-12-20T09:31:25;20.30;;;3.15;;
58581;SDS011;44361;51.476;5.700;2023-12-20T09:33:50;16.13;;;3.70;;
58581;SDS011;44361;51.476;5.700;2023-12-20T09:36:16;20.23;;;3.92;;
58581;SDS011;44361;51.476;5.700;2023-12-20T09:38:41;16.95;;;3.58;;
58581;SDS011;44361;51.476;5.700;2023-12-20T09:41:07;25.45;;;3.45;;
58581;SDS011;44361;51.476;5.700;2023-12-20T09:43:33;21.95;;;3.53;;
58581;SDS011;44361;51.476;5.700;2023-12-20T09:46:02;23.92;;;3.38;;
58581;SDS011;44361;51.476;5.700;2023-12-20T09:48:30;13.45;;;3.47;;
58581;SDS011;44361;51.476;5.700;2023-12-20T09:50:57;20.70;;;3.22;;
58581;SDS011;44361;51.476;5.700;2023-12-20T09:53:23;16.00;;;3.38;;
58581;SDS011;44361;51.476;5.700;2023-12-20T09:55:54;22.92;;;2.95;;
58581;SDS011;44361;51.476;5.700;2023-12-20T09:58:26;14.35;;;3.33;;
58581;SDS011;44361;51.476;5.700;2023-12-20T10:00:52;17.67;;;3.13;;
58581;SDS011;44361;51.476;5.700;2023-12-20T10:03:19;18.75;;;2.97;;
58581;SDS011;44361;51.476;5.700;2023-12-20T10:05:49;16.38;;;3.67;;
58581;SDS011;44361;51.476;5.700;2023-12-20T10:08:17;23.20;;;3.22;;
58581;SDS011;44361;51.476;5.700;2023-12-20T10:10:47;18.90;;;3.10;;
58581;SDS011;44361;51.476;5.700;2023-12-20T10:13:12;12.85;;;2.88;;
58581;SDS011;44361;51.476;5.700;2023-12-20T10:15:38;21.02;;;3.42;;
58581;SDS011;44361;51.476;5.700;2023-12-20T10:18:04;23.58;;;3.60;;
58581;SDS011;44361;51.476;5.700;2023-12-20T10:20:31;18.65;;;3.53;;
58581;SDS011;44361;51.476;5.700;2023-12-20T10:23:00;11.10;;;2.80;;
58581;SDS011;44361;51.476;5.700;2023-12-20T10:25:26;23.55;;;3.67;;
58581;SDS011;44361;51.476;5.700;2023-12-20T10:28:13;17.95;;;3.00;;
58581;SDS011;44361;51.476;5.700;2023-12-20T10:30:38;21.98;;;3.50;;
58581;SDS011;44361;51.476;5.700;2023-12-20T10:33:05;15.88;;;2.95;;
58581;SDS011;44361;51.476;5.700;2023-12-20T10:35:32;15.73;;;3.10;;
58581;SDS011;44361;51.476;5.700;2023-12-20T10:37:58;22.40;;;3.95;;
58581;SDS011;44361;51.476;5.700;2023-12-20T10:40:28;12.90;;;2.90;;
58581;SDS011;44361;51.476;5.700;2023-12-20T10:42:55;14.13;;;2.50;;
58581;SDS011;44361;51.476;5.700;2023-12-20T10:45:21;18.85;;;3.00;;
58581;SDS011;44361;51.476;5.700;2023-12-20T10:47:48;14.88;;;3.20;;
58581;SDS011;44361;51.476;5.700;2023-12-20T10:50:15;17.48;;;3.10;;
58581;SDS011;44361;51.476;5.700;2023-12-20T10:52:41;21.75;;;3.25;;
58581;SDS011;44361;51.476;5.700;2023-12-20T10:55:09;27.35;;;3.33;;
58581;SDS011;44361;51.476;5.700;2023-12-20T10:57:35;19.98;;;2.88;;
58581;SDS011;44361;51.476;5.700;2023-12-20T11:00:02;19.67;;;2.92;;
58581;SDS011;44361;51.476;5.700;2023-12-20T11:02:32;21.17;;;3.35;;
58581;SDS011;44361;51.476;5.700;2023-12-20T11:07:48;16.85;;;3.13;;
58581;SDS011;44361;51.476;5.700;2023-12-20T11:10:31;18.42;;;3.30;;
58581;SDS011;44361;51.476;5.700;2023-12-20T11:13:20;17.35;;;3.35;;
58581;SDS011;44361;51.476;5.700;2023-12-20T11:15:50;16.23;;;3.10;;
58581;SDS011;44361;51.476;5.700;2023-12-20T11:18:16;20.27;;;3.72;;
58581;SDS011;44361;51.476;5.700;2023-12-20T11:20:41;19.33;;;3.58;;
58581;SDS011;44361;51.476;5.700;2023-12-20T11:23:08;17.60;;;3.15;;
58581;SDS011;44361;51.476;5.700;2023-12-20T11:28:16;23.60;;;3.72;;
58581;SDS011;44361;51.476;5.700;2023-12-20T11:30:47;16.77;;;3.53;;
58581;SDS011;44361;51.476;5.700;2023-12-20T11:33:16;11.65;;;2.90;;
58581;SDS011;44361;51.476;5.700;2023-12-20T11:35:46;13.70;;;3.28;;
58581;SDS011;44361;51.476;5.700;2023-12-20T11:38:12;20.55;;;3.38;;
58581;SDS011;44361;51.476;5.700;2023-12-20T11:40:39;12.82;;;3.42;;
58581;SDS011;44361;51.476;5.700;2023-12-20T11:43:07;15.52;;;3.95;;
58581;SDS011;44361;51.476;5.700;2023-12-20T11:45:32;18.13;;;3.03;;
58581;SDS011;44361;51.476;5.700;2023-12-20T11:48:00;16.50;;;3.63;;
58581;SDS011;44361;51.476;5.700;2023-12-20T11:50:29;17.67;;;3.92;;
58581;SDS011;44361;51.476;5.700;2023-12-20T11:52:55;18.13;;;3.63;;
58581;SDS011;44361;51.476;5.700;2023-12-20T11:55:22;19.23;;;3.97;;
58581;SDS011;44361;51.476;5.700;2023-12-20T11:57:49;16.45;;;4.07;;
58581;SDS011;44361;51.476;5.700;2023-12-20T12:00:15;19.00;;;3.80;;
58581;SDS011;44361;51.476;5.700;2023-12-20T12:02:41;14.35;;;3.67;;
58581;SDS011;44361;51.476;5.700;2023-12-20T12:05:07;26.40;;;4.70;;
58581;SDS011;44361;51.476;5.700;2023-12-20T12:07:36;16.23;;;4.15;;
58581;SDS011;44361;51.476;5.700;2023-12-20T12:10:02;22.33;;;4.82;;
58581;SDS011;44361;51.476;5.700;2023-12-20T12:12:28;19.63;;;4.40;;
58581;SDS011;44361;51.476;5.700;2023-12-20T12:14:55;19.98;;;4.15;;
58581;SDS011;44361;51.476;5.700;2023-12-20T12:17:22;22.63;;;4.43;;
58581;SDS011;44361;51.476;5.700;2023-12-20T12:19:48;12.45;;;3.92;;
58581;SDS011;44361;51.476;5.700;2023-12-20T12:22:14;15.50;;;3.97;;
58581;SDS011;44361;51.476;5.700;2023-12-20T12:24:42;23.65;;;4.97;;
58581;SDS011;44361;51.476;5.700;2023-12-20T12:27:08;13.45;;;4.22;;
58581;SDS011;44361;51.476;5.700;2023-12-20T12:29:35;29.13;;;5.40;;
58581;SDS011;44361;51.476;5.700;2023-12-20T12:32:04;20.67;;;5.05;;
58581;SDS011;44361;51.476;5.700;2023-12-20T12:34:31;22.13;;;6.00;;
58581;SDS011;44361;51.476;5.700;2023-12-20T12:36:57;18.00;;;4.97;;
58581;SDS011;44361;51.476;5.700;2023-12-20T12:39:23;23.08;;;5.78;;
58581;SDS011;44361;51.476;5.700;2023-12-20T12:41:55;18.92;;;4.88;;
58581;SDS011;44361;51.476;5.700;2023-12-20T12:44:22;15.65;;;4.82;;
58581;SDS011;44361;51.476;5.700;2023-12-20T12:46:50;25.33;;;5.70;;
58581;SDS011;44361;51.476;5.700;2023-12-20T12:49:16;19.65;;;5.60;;
58581;SDS011;44361;51.476;5.700;2023-12-20T12:51:42;26.63;;;5.53;;
58581;SDS011;44361;51.476;5.700;2023-12-20T12:54:08;30.40;;;6.00;;
58581;SDS011;44361;51.476;5.700;2023-12-20T12:56:34;20.13;;;5.35;;
58581;SDS011;44361;51.476;5.700;2023-12-20T12:59:01;22.80;;;6.53;;
58581;SDS011;44361;51.476;5.700;2023-12-20T13:01:26;27.90;;;6.10;;
58581;SDS011;44361;51.476;5.700;2023-12-20T13:03:52;25.42;;;7.28;;
58581;SDS011;44361;51.476;5.700;2023-12-20T13:06:17;22.55;;;6.38;;
58581;SDS011;44361;51.476;5.700;2023-12-20T13:08:43;28.58;;;6.20;;
58581;SDS011;44361;51.476;5.700;2023-12-20T13:11:09;26.67;;;6.72;;
58581;SDS011;44361;51.476;5.700;2023-12-20T13:13:35;25.98;;;7.47;;
58581;SDS011;44361;51.476;5.700;2023-12-20T13:16:00;32.95;;;8.32;;
58581;SDS011;44361;51.476;5.700;2023-12-20T13:18:26;30.58;;;7.28;;
58581;SDS011;44361;51.476;5.700;2023-12-20T13:20:51;26.48;;;7.45;;
58581;SDS011;44361;51.476;5.700;2023-12-20T13:23:17;22.05;;;7.82;;
58581;SDS011;44361;51.476;5.700;2023-12-20T13:25:43;28.15;;;8.07;;
58581;SDS011;44361;51.476;5.700;2023-12-20T13:28:10;30.23;;;8.82;;
58581;SDS011;44361;51.476;5.700;2023-12-20T13:30:36;30.17;;;8.15;;
58581;SDS011;44361;51.476;5.700;2023-12-20T13:33:02;20.65;;;7.55;;
58581;SDS011;44361;51.476;5.700;2023-12-20T13:35:27;20.83;;;6.95;;
58581;SDS011;44361;51.476;5.700;2023-12-20T13:37:53;21.65;;;7.47;;
58581;SDS011;44361;51.476;5.700;2023-12-20T13:40:19;21.35;;;6.47;;
58581;SDS011;44361;51.476;5.700;2023-12-20T13:42:44;23.95;;;7.05;;
58581;SDS011;44361;51.476;5.700;2023-12-20T13:45:10;17.92;;;6.25;;
58581;SDS011;44361;51.476;5.700;2023-12-20T13:47:36;22.77;;;6.38;;
58581;SDS011;44361;51.476;5.700;2023-12-20T13:50:02;21.08;;;6.15;;
58581;SDS011;44361;51.476;5.700;2023-12-20T13:52:29;29.58;;;6.25;;
58581;SDS011;44361;51.476;5.700;2023-12-20T13:54:54;18.85;;;4.97;;
58581;SDS011;44361;51.476;5.700;2023-12-20T13:57:20;25.75;;;6.43;;
58581;SDS011;44361;51.476;5.700;2023-12-20T13:59:45;18.27;;;6.28;;
58581;SDS011;44361;51.476;5.700;2023-12-20T14:02:11;33.42;;;10.95;;
58581;SDS011;44361;51.476;5.700;2023-12-20T14:04:37;26.20;;;6.28;;
58581;SDS011;44361;51.476;5.700;2023-12-20T14:07:04;21.25;;;5.53;;
58581;SDS011;44361;51.476;5.700;2023-12-20T14:09:30;21.40;;;5.15;;
58581;SDS011;44361;51.476;5.700;2023-12-20T14:11:55;23.45;;;5.60;;
58581;SDS011;44361;51.476;5.700;2023-12-20T14:14:21;18.88;;;4.93;;
58581;SDS011;44361;51.476;5.700;2023-12-20T14:16:46;23.52;;;5.60;;
58581;SDS011;44361;51.476;5.700;2023-12-20T14:19:12;25.67;;;6.10;;
58581;SDS011;44361;51.476;5.700;2023-12-20T14:21:37;19.98;;;5.25;;
58581;SDS011;44361;51.476;5.700;2023-12-20T14:24:03;21.30;;;4.88;;
58581;SDS011;44361;51.476;5.700;2023-12-20T14:26:29;20.65;;;6.35;;
58581;SDS011;44361;51.476;5.700;2023-12-20T14:28:56;21.08;;;5.03;;
58581;SDS011;44361;51.476;5.700;2023-12-20T14:31:21;15.95;;;5.70;;
58581;SDS011;44361;51.476;5.700;2023-12-20T14:33:49;24.50;;;5.47;;